createdAt,value
2022-10-18T00:02:16.873Z,10.26
2022-10-18T00:04:43.621Z,10.22
2022-10-18T00:07:10.198Z,10.18
2022-10-18T00:09:36.795Z,10.15
2022-10-18T00:12:04.124Z,10.12
2022-10-18T00:14:30.799Z,10.08
2022-10-18T00:16:57.701Z,10.03
2022-10-18T00:19:26.038Z,10.00
2022-10-18T00:21:55.298Z,10.04
2022-10-18T00:24:21.889Z,9.99
2022-10-18T00:26:50.863Z,10.02
2022-10-18T00:29:17.538Z,9.99
2022-10-18T00:31:46.490Z,9.94
2022-10-18T00:34:14.737Z,9.86
2022-10-18T00:36:42.433Z,9.88
2022-10-18T00:39:14.168Z,9.88
2022-10-18T00:41:43.739Z,9.90
2022-10-18T00:44:13.191Z,9.85
2022-10-18T00:46:43.018Z,9.81
2022-10-18T00:49:13.460Z,9.75
2022-10-18T00:51:56.218Z,9.73
2022-10-18T00:54:23.713Z,9.69
2022-10-18T00:56:50.960Z,9.65
2022-10-18T00:59:18.610Z,9.66
2022-10-18T01:01:45.722Z,9.58
2022-10-18T01:04:14.581Z,9.54
2022-10-18T01:06:59.715Z,9.48
2022-10-18T01:09:38.871Z,9.44
2022-10-18T01:12:25.996Z,9.43
2022-10-18T01:15:13.616Z,9.48
2022-10-18T01:17:49.009Z,9.43
2022-10-18T01:20:41.521Z,9.36
2022-10-18T01:23:16.069Z,9.33
2022-10-18T01:26:01.346Z,9.34
2022-10-18T01:28:49.138Z,9.34
2022-10-18T01:31:21.535Z,9.39
2022-10-18T01:33:55.100Z,9.36
2022-10-18T01:36:34.552Z,9.35
2022-10-18T01:39:06.201Z,9.34
2022-10-18T01:41:35.965Z,9.33
2022-10-18T01:44:06.413Z,9.33
2022-10-18T01:46:33.900Z,9.34
2022-10-18T01:49:00.545Z,9.31
2022-10-18T01:51:29.436Z,9.31
2022-10-18T01:53:56.937Z,9.33
2022-10-18T01:56:35.299Z,9.28
2022-10-18T01:59:30.504Z,9.24
2022-10-18T02:01:59.719Z,9.22
2022-10-18T02:05:01.898Z,9.19
2022-10-18T02:07:41.762Z,9.20
2022-10-18T02:12:48.870Z,9.00
2022-10-18T02:15:19.911Z,8.96
2022-10-18T02:17:47.257Z,8.95
2022-10-18T02:20:19.739Z,9.04
2022-10-18T02:22:49.535Z,8.98
2022-10-18T02:25:23.349Z,8.92
2022-10-18T02:27:56.233Z,8.88
2022-10-18T02:30:29.399Z,8.89
2022-10-18T02:33:04.327Z,8.84
2022-10-18T02:35:40.952Z,8.82
2022-10-18T02:38:09.595Z,8.82
2022-10-18T02:40:36.291Z,8.83
2022-10-18T02:43:05.814Z,8.81
2022-10-18T02:45:33.014Z,8.85
2022-10-18T02:47:59.862Z,8.88
2022-10-18T02:50:26.572Z,8.83
2022-10-18T02:52:53.206Z,8.86
2022-10-18T02:55:20.145Z,8.77
2022-10-18T02:57:46.789Z,8.73
2022-10-18T03:00:14.018Z,8.68
2022-10-18T03:02:40.631Z,8.66
2022-10-18T03:05:07.455Z,8.62
2022-10-18T03:07:34.297Z,8.57
2022-10-18T03:10:01.083Z,8.61
2022-10-18T03:12:27.670Z,8.58
2022-10-18T03:14:54.418Z,8.57
2022-10-18T03:17:21.087Z,8.54
2022-10-18T03:19:47.674Z,8.57
2022-10-18T03:22:14.405Z,8.55
2022-10-18T03:24:41.190Z,8.51
2022-10-18T03:27:07.970Z,8.51
2022-10-18T03:29:36.964Z,8.47
2022-10-18T03:32:03.877Z,8.44
2022-10-18T03:34:30.502Z,8.39
2022-10-18T03:37:00.950Z,8.34
2022-10-18T03:39:30.093Z,8.37
2022-10-18T03:41:56.817Z,8.41
2022-10-18T03:44:23.411Z,8.39
2022-10-18T03:46:50.064Z,8.45
2022-10-18T03:49:16.630Z,8.41
2022-10-18T03:51:43.271Z,8.37
2022-10-18T03:54:09.902Z,8.34
2022-10-18T03:56:36.530Z,8.27
2022-10-18T03:59:04.505Z,8.26
2022-10-18T04:01:31.481Z,8.22
2022-10-18T04:03:58.114Z,8.24
2022-10-18T04:06:24.770Z,8.18
2022-10-18T04:08:51.351Z,8.16
2022-10-18T04:11:18.069Z,8.21
2022-10-18T04:13:44.629Z,8.23
2022-10-18T04:16:11.407Z,8.23
2022-10-18T04:18:38.297Z,8.17
2022-10-18T04:21:05.149Z,8.13
2022-10-18T04:23:35.019Z,8.19
2022-10-18T04:26:04.646Z,8.14
2022-10-18T04:28:37.538Z,8.15
2022-10-18T04:31:04.116Z,8.15
2022-10-18T04:33:30.759Z,8.10
2022-10-18T04:35:57.365Z,8.08
2022-10-18T04:38:24.293Z,8.14
2022-10-18T04:40:50.933Z,8.07
2022-10-18T04:43:17.627Z,8.05
2022-10-18T04:45:48.195Z,8.07
2022-10-18T04:48:15.354Z,8.04
2022-10-18T04:50:41.951Z,7.97
2022-10-18T04:53:14.160Z,7.97
2022-10-18T04:55:44.187Z,7.95
2022-10-18T04:58:11.359Z,7.96
2022-10-18T05:00:40.032Z,7.95
2022-10-18T05:03:07.732Z,7.95
2022-10-18T05:05:43.458Z,7.93
2022-10-18T05:08:21.746Z,7.98
2022-10-18T05:10:48.476Z,7.98
2022-10-18T05:13:15.449Z,7.97
2022-10-18T05:15:42.102Z,8.03
2022-10-18T05:18:08.702Z,8.08
2022-10-18T05:20:35.301Z,8.11
2022-10-18T05:23:01.966Z,8.18
2022-10-18T05:25:28.687Z,8.21
2022-10-18T05:27:55.272Z,8.23
2022-10-18T05:30:21.925Z,8.31
2022-10-18T05:32:48.727Z,8.33
2022-10-18T05:35:15.417Z,8.36
2022-10-18T05:37:42.055Z,8.41
2022-10-18T05:40:12.650Z,8.41
2022-10-18T05:42:43.192Z,8.48
2022-10-18T05:45:09.911Z,8.46
2022-10-18T05:47:36.701Z,8.51
2022-10-18T05:50:03.831Z,8.46
2022-10-18T05:52:30.857Z,8.62
2022-10-18T05:54:57.618Z,8.73
2022-10-18T05:57:24.275Z,8.82
2022-10-18T05:59:50.904Z,8.90
2022-10-18T06:02:17.553Z,8.94
2022-10-18T06:04:44.250Z,8.99
2022-10-18T06:07:11.486Z,9.08
2022-10-18T06:09:38.911Z,9.05
2022-10-18T06:12:05.806Z,9.10
2022-10-18T06:14:32.455Z,9.21
2022-10-18T06:16:59.053Z,9.27
2022-10-18T06:19:26.013Z,9.45
2022-10-18T06:21:52.737Z,9.50
2022-10-18T06:24:21.596Z,9.71
2022-10-18T06:26:48.323Z,9.68
2022-10-18T06:29:15.074Z,9.58
2022-10-18T06:31:41.753Z,9.69
2022-10-18T06:34:08.326Z,9.75
2022-10-18T06:36:35.022Z,9.90
2022-10-18T06:39:02.547Z,9.96
2022-10-18T06:41:29.194Z,10.06
2022-10-18T06:44:15.558Z,10.19
2022-10-18T06:46:42.224Z,10.34
2022-10-18T06:49:09.146Z,10.36
2022-10-18T06:51:35.838Z,10.45
2022-10-18T06:54:17.395Z,10.54
2022-10-18T06:56:45.489Z,10.72
2022-10-18T06:59:12.233Z,10.74
2022-10-18T07:01:39.023Z,10.91
2022-10-18T07:04:05.752Z,10.97
2022-10-18T07:06:32.439Z,11.16
2022-10-18T07:08:59.444Z,11.18
2022-10-18T07:11:27.170Z,11.16
2022-10-18T07:13:55.078Z,11.38
2022-10-18T07:16:21.971Z,11.36
2022-10-18T07:18:51.007Z,11.50
2022-10-18T07:21:20.013Z,11.70
2022-10-18T07:23:47.357Z,11.86
2022-10-18T07:26:19.658Z,12.29
2022-10-18T07:28:49.323Z,12.36
2022-10-18T07:31:17.313Z,12.33
2022-10-18T07:33:43.968Z,12.49
2022-10-18T07:36:11.990Z,12.71
2022-10-18T07:38:38.931Z,12.92
2022-10-18T07:41:07.659Z,12.79
2022-10-18T07:43:35.547Z,12.81
2022-10-18T07:46:05.116Z,13.10
2022-10-18T07:48:31.954Z,13.18
2022-10-18T07:51:00.358Z,13.14
2022-10-18T07:53:27.936Z,13.11
2022-10-18T07:55:59.064Z,13.22
2022-10-18T07:58:25.835Z,13.44
2022-10-18T08:00:52.504Z,13.49
2022-10-18T08:03:19.333Z,13.65
2022-10-18T08:05:52.856Z,13.80
2022-10-18T08:08:20.973Z,13.92
2022-10-18T08:10:47.740Z,13.87
2022-10-18T08:13:15.213Z,13.94
2022-10-18T08:15:41.868Z,14.57
2022-10-18T08:18:08.531Z,15.28
2022-10-18T08:20:36.912Z,15.92
2022-10-18T08:23:04.845Z,17.48
2022-10-18T08:25:31.661Z,18.96
2022-10-18T08:27:58.595Z,19.25
2022-10-18T08:30:25.342Z,20.48
2022-10-18T08:32:51.951Z,20.91
2022-10-18T08:35:18.611Z,21.53
2022-10-18T08:37:45.411Z,21.43
2022-10-18T08:40:15.716Z,21.88
2022-10-18T08:43:31.777Z,22.06
2022-10-18T08:45:59.219Z,21.78
2022-10-18T08:48:35.406Z,22.03
2022-10-18T08:51:05.100Z,23.19
2022-10-18T08:53:51.764Z,22.99
2022-10-18T08:56:24.133Z,23.28
2022-10-18T08:58:51.038Z,24.00
2022-10-18T09:01:51.850Z,24.32
2022-10-18T09:04:48.514Z,24.27
2022-10-18T09:07:24.582Z,24.63
2022-10-18T09:10:28.878Z,24.88
2022-10-18T09:13:17.463Z,25.37
2022-10-18T09:16:26.917Z,26.26
2022-10-18T09:19:09.334Z,26.96
2022-10-18T09:21:52.616Z,26.56
2022-10-18T09:24:43.122Z,26.81
2022-10-18T09:27:18.669Z,26.69
2022-10-18T09:29:50.699Z,26.26
2022-10-18T09:32:38.787Z,26.90
2022-10-18T09:35:22.717Z,27.29
2022-10-18T09:37:50.591Z,27.31
2022-10-18T09:40:26.867Z,27.43
2022-10-18T09:42:56.918Z,28.53
2022-10-18T09:45:29.304Z,28.91
2022-10-18T09:48:20.510Z,29.06
2022-10-18T09:51:02.655Z,28.79
2022-10-18T09:53:50.226Z,28.98
2022-10-18T09:56:29.694Z,29.61
2022-10-18T09:58:56.331Z,29.39
2022-10-18T10:01:25.523Z,29.34
2022-10-18T10:03:52.404Z,28.86
2022-10-18T10:06:30.355Z,29.37
2022-10-18T10:09:01.233Z,29.43
2022-10-18T10:11:38.136Z,29.52
2022-10-18T10:14:26.601Z,29.66
2022-10-18T10:17:06.897Z,30.07
2022-10-18T10:19:53.442Z,29.96
2022-10-18T10:22:35.267Z,30.80
2022-10-18T10:25:02.160Z,31.43
2022-10-18T10:27:43.835Z,30.62
2022-10-18T10:30:34.099Z,30.42
2022-10-18T10:33:01.558Z,31.42
2022-10-18T10:35:53.931Z,30.94
2022-10-18T10:38:28.658Z,31.74
2022-10-18T10:40:56.126Z,32.68
2022-10-18T10:43:43.285Z,38.53
2022-10-18T10:46:13.049Z,40.46
2022-10-18T10:49:04.197Z,41.19
2022-10-18T10:51:40.814Z,39.43
2022-10-18T10:54:17.780Z,40.60
2022-10-18T10:57:08.568Z,41.61
2022-10-18T10:59:44.423Z,42.69
2022-10-18T11:02:13.960Z,42.40
2022-10-18T11:04:42.138Z,42.84
2022-10-18T11:07:30.332Z,43.33
2022-10-18T11:10:16.852Z,43.32
2022-10-18T11:13:04.715Z,42.59
2022-10-18T11:15:39.802Z,43.02
2022-10-18T11:18:22.988Z,43.93
2022-10-18T11:20:49.577Z,43.12
2022-10-18T11:23:18.063Z,41.95
2022-10-18T11:26:15.519Z,41.63
2022-10-18T11:28:57.495Z,42.31
2022-10-18T11:31:35.795Z,42.60
2022-10-18T11:34:14.229Z,43.34
2022-10-18T11:37:32.180Z,43.34
2022-10-18T11:40:19.953Z,43.90
2022-10-18T11:43:06.626Z,43.34
2022-10-18T11:45:39.474Z,43.08
2022-10-18T11:48:18.755Z,42.32
2022-10-18T11:50:53.947Z,43.48
2022-10-18T11:53:34.999Z,44.24
2022-10-18T11:56:29.101Z,43.82
2022-10-18T11:59:37.653Z,44.05
2022-10-18T12:02:13.371Z,43.79
2022-10-18T12:05:05.123Z,43.95
2022-10-18T12:07:41.578Z,42.60
2022-10-18T12:10:19.480Z,42.33
2022-10-18T12:13:02.688Z,42.72
2022-10-18T12:15:33.715Z,42.11
2022-10-18T12:18:06.401Z,42.56
2022-10-18T12:20:36.386Z,43.71
2022-10-18T12:23:09.764Z,43.66
2022-10-18T12:25:40.377Z,42.96
2022-10-18T12:28:29.085Z,42.64
2022-10-18T12:31:13.599Z,43.81
2022-10-18T12:33:44.751Z,42.22
2022-10-18T12:36:45.018Z,42.36
2022-10-18T12:39:37.600Z,43.08
2022-10-18T12:42:31.198Z,43.24
2022-10-18T12:45:28.407Z,42.11
2022-10-18T12:47:59.248Z,42.69
2022-10-18T12:50:38.683Z,42.38
2022-10-18T12:53:26.607Z,41.69
2022-10-18T12:55:54.099Z,41.69
2022-10-18T12:58:22.615Z,41.55
2022-10-18T13:00:49.210Z,41.70
2022-10-18T13:03:18.517Z,41.61
2022-10-18T13:05:53.795Z,40.85
2022-10-18T13:08:27.307Z,41.09
2022-10-18T13:11:09.052Z,40.75
2022-10-18T13:13:44.776Z,40.98
2022-10-18T13:16:20.657Z,40.32
2022-10-18T13:18:55.047Z,40.49
2022-10-18T13:21:40.506Z,40.38
2022-10-18T13:24:24.224Z,41.24
2022-10-18T13:30:16.745Z,40.46
2022-10-18T13:33:01.990Z,40.06
2022-10-18T13:35:57.238Z,40.41
2022-10-18T13:38:30.080Z,38.21
2022-10-18T13:41:17.209Z,38.75
2022-10-18T13:43:53.245Z,39.46
2022-10-18T13:46:20.445Z,38.23
2022-10-18T13:48:48.685Z,38.14
2022-10-18T13:51:48.627Z,38.67
2022-10-18T13:54:44.017Z,37.62
2022-10-18T13:57:45.226Z,37.95
2022-10-18T14:00:27.004Z,37.42
2022-10-18T14:03:44.073Z,37.74
2022-10-18T14:06:19.352Z,37.61
2022-10-18T14:09:26.200Z,37.10
2022-10-18T14:12:27.733Z,37.11
2022-10-18T14:15:12.807Z,36.80
2022-10-18T14:17:52.687Z,36.15
2022-10-18T14:20:30.707Z,35.92
2022-10-18T14:23:07.180Z,35.33
2022-10-18T14:25:36.373Z,35.34
2022-10-18T14:28:12.473Z,35.36
2022-10-18T14:30:59.935Z,32.28
2022-10-18T14:33:58.397Z,30.41
2022-10-18T14:36:29.730Z,29.76
2022-10-18T14:39:07.739Z,29.70
2022-10-18T14:41:38.631Z,29.08
2022-10-18T14:44:14.272Z,28.49
2022-10-18T14:46:44.828Z,27.96
2022-10-18T14:49:13.009Z,27.59
2022-10-18T14:51:42.433Z,27.46
2022-10-18T14:54:18.144Z,27.11
2022-10-18T14:56:45.866Z,26.89
2022-10-18T14:59:18.943Z,26.52
2022-10-18T15:01:55.883Z,25.91
2022-10-18T15:04:27.789Z,25.82
2022-10-18T15:06:55.906Z,25.55
2022-10-18T15:09:24.363Z,24.97
2022-10-18T15:11:51.821Z,24.19
2022-10-18T15:14:20.431Z,22.87
2022-10-18T15:16:51.875Z,21.99
2022-10-18T15:19:18.402Z,21.58
2022-10-18T15:22:13.650Z,21.34
2022-10-18T15:24:44.036Z,20.70
2022-10-18T15:27:11.962Z,20.32
2022-10-18T15:29:38.671Z,20.11
2022-10-18T15:32:14.676Z,19.87
2022-10-18T15:34:41.342Z,19.69
2022-10-18T15:37:36.603Z,19.32
2022-10-18T15:40:36.674Z,19.01
2022-10-18T15:43:06.175Z,18.75
2022-10-18T15:45:36.173Z,18.73
2022-10-18T15:48:13.106Z,18.59
2022-10-18T15:50:43.162Z,18.24
2022-10-18T15:53:25.277Z,18.01
2022-10-18T15:56:25.902Z,17.76
2022-10-18T15:58:53.739Z,17.62
2022-10-18T16:01:24.375Z,17.41
2022-10-18T16:03:51.756Z,17.23
2022-10-18T16:06:18.988Z,17.02
2022-10-18T16:08:50.648Z,16.99
2022-10-18T16:11:23.962Z,16.82
2022-10-18T16:13:55.187Z,16.71
2022-10-18T16:16:29.182Z,16.54
2022-10-18T16:18:57.051Z,16.42
2022-10-18T16:21:29.890Z,16.27
2022-10-18T16:23:56.973Z,16.18
2022-10-18T16:26:24.988Z,16.16
2022-10-18T16:28:53.180Z,16.04
2022-10-18T16:31:22.452Z,15.98
2022-10-18T16:33:50.161Z,16.00
2022-10-18T16:36:20.034Z,15.95
2022-10-18T16:38:48.007Z,15.87
2022-10-18T16:41:15.875Z,15.83
2022-10-18T16:43:47.310Z,15.81
2022-10-18T16:46:27.402Z,15.69
2022-10-18T16:48:54.552Z,15.60
2022-10-18T16:51:21.242Z,15.55
2022-10-18T16:53:48.553Z,15.58
2022-10-18T16:56:25.044Z,15.47
2022-10-18T16:58:51.702Z,15.34
2022-10-18T17:01:20.511Z,15.27
2022-10-18T17:03:47.894Z,15.27
2022-10-18T17:06:16.217Z,15.14
2022-10-18T17:08:43.262Z,15.09
2022-10-18T17:11:11.460Z,15.02
2022-10-18T17:13:38.566Z,15.01
2022-10-18T17:16:07.538Z,15.00
2022-10-18T17:18:34.133Z,14.96
2022-10-18T17:21:03.117Z,14.92
2022-10-18T17:23:30.605Z,14.92
2022-10-18T17:26:05.565Z,14.90
2022-10-18T17:28:41.890Z,14.85
2022-10-18T17:31:08.587Z,14.84
2022-10-18T17:33:35.670Z,14.84
2022-10-18T17:36:02.756Z,14.74
2022-10-18T17:38:29.384Z,14.68
2022-10-18T17:40:57.112Z,14.67
2022-10-18T17:43:23.822Z,14.69
2022-10-18T17:45:54.990Z,14.57
2022-10-18T17:48:22.810Z,14.46
2022-10-18T17:50:49.396Z,14.45
2022-10-18T17:53:18.336Z,14.39
2022-10-18T17:55:44.937Z,14.40
2022-10-18T17:58:11.610Z,14.41
2022-10-18T18:00:38.291Z,14.37
2022-10-18T18:03:05.113Z,14.39
2022-10-18T18:05:33.471Z,14.37
2022-10-18T18:08:03.862Z,14.32
2022-10-18T18:10:33.570Z,14.32
2022-10-18T18:13:01.261Z,14.24
2022-10-18T18:15:27.930Z,14.27
2022-10-18T18:17:58.369Z,14.36
2022-10-18T18:20:26.559Z,14.37
2022-10-18T18:22:55.723Z,14.37
2022-10-18T18:25:22.345Z,14.36
2022-10-18T18:27:48.950Z,14.40
2022-10-18T18:30:17.863Z,14.31
2022-10-18T18:32:44.741Z,14.20
2022-10-18T18:35:13.677Z,14.20
2022-10-18T18:37:40.547Z,14.19
2022-10-18T18:40:08.079Z,14.16
2022-10-18T18:42:34.898Z,14.05
2022-10-18T18:45:01.763Z,13.96
2022-10-18T18:47:28.698Z,13.91
2022-10-18T18:49:55.270Z,13.86
2022-10-18T18:52:22.157Z,13.81
2022-10-18T18:54:48.743Z,13.70
2022-10-18T19:00:17.595Z,13.72
2022-10-18T19:02:44.216Z,13.60
2022-10-18T19:05:10.943Z,13.56
2022-10-18T19:07:37.628Z,13.51
2022-10-18T19:10:04.719Z,13.42
2022-10-18T19:12:31.351Z,13.36
2022-10-18T19:14:57.999Z,13.34
2022-10-18T19:17:24.746Z,13.36
2022-10-18T19:19:52.052Z,13.34
2022-10-18T19:22:18.715Z,13.32
2022-10-18T19:24:45.335Z,13.23
2022-10-18T19:27:12.616Z,13.18
2022-10-18T19:29:41.155Z,13.19
2022-10-18T19:32:12.221Z,13.18
2022-10-18T19:34:39.364Z,13.15
2022-10-18T19:37:06.010Z,13.08
2022-10-18T19:39:35.961Z,13.05
2022-10-18T19:42:05.997Z,13.04
2022-10-18T19:44:34.971Z,13.03
2022-10-18T19:47:02.722Z,13.00
2022-10-18T19:49:29.872Z,12.90
2022-10-18T19:51:57.318Z,12.89
2022-10-18T19:54:24.808Z,12.86
2022-10-18T19:56:51.650Z,12.90
2022-10-18T19:59:18.872Z,12.89
2022-10-18T20:01:45.863Z,12.80
2022-10-18T20:04:14.283Z,12.72
2022-10-18T20:06:42.073Z,12.68
2022-10-18T20:09:13.353Z,12.60
2022-10-18T20:11:43.355Z,12.56
2022-10-18T20:14:10.802Z,12.52
2022-10-18T20:16:37.693Z,12.51
2022-10-18T20:19:07.606Z,12.47
2022-10-18T20:21:35.884Z,12.41
2022-10-18T20:24:04.507Z,12.43
2022-10-18T20:26:31.455Z,12.52
2022-10-18T20:29:08.195Z,12.49
2022-10-18T20:31:38.923Z,12.41
2022-10-18T20:34:08.486Z,12.33
2022-10-18T20:36:35.674Z,12.33
2022-10-18T20:39:03.712Z,12.36
2022-10-18T20:41:36.450Z,12.33
2022-10-18T20:44:05.055Z,12.28
2022-10-18T20:46:34.311Z,12.24
2022-10-18T20:49:01.585Z,12.26
2022-10-18T20:51:28.592Z,12.25
2022-10-18T20:53:55.438Z,12.23
2022-10-18T20:56:26.368Z,12.23
2022-10-18T20:58:55.938Z,12.14
2022-10-18T21:01:28.160Z,12.11
2022-10-18T21:03:56.702Z,12.05
2022-10-18T21:06:28.601Z,12.02
2022-10-18T21:09:05.572Z,12.09
2022-10-18T21:11:36.561Z,12.02
2022-10-18T21:14:04.417Z,12.02
2022-10-18T21:16:32.793Z,12.02
2022-10-18T21:19:13.958Z,11.97
2022-10-18T21:21:43.875Z,11.92
2022-10-18T21:24:11.663Z,11.92
2022-10-18T21:26:38.418Z,11.94
2022-10-18T21:29:06.278Z,11.86
2022-10-18T21:31:36.282Z,11.81
2022-10-18T21:34:09.898Z,11.82
2022-10-18T21:36:37.235Z,11.82
2022-10-18T21:39:05.891Z,11.69
2022-10-18T21:41:36.334Z,11.62
2022-10-18T21:44:06.850Z,11.66
2022-10-18T21:46:36.605Z,11.63
2022-10-18T21:49:03.482Z,11.70
2022-10-18T21:51:30.150Z,11.70
2022-10-18T21:53:58.166Z,11.68
2022-10-18T21:56:30.213Z,11.68
2022-10-18T21:58:57.567Z,11.60
2022-10-18T22:01:27.092Z,11.56
2022-10-18T22:03:55.350Z,11.53
2022-10-18T22:06:22.745Z,11.47
2022-10-18T22:08:49.372Z,11.45
2022-10-18T22:11:16.950Z,11.48
2022-10-18T22:13:43.595Z,11.45
2022-10-18T22:16:14.236Z,11.48
2022-10-18T22:18:41.755Z,11.45
2022-10-18T22:21:10.320Z,11.35
2022-10-18T22:23:42.261Z,11.34
2022-10-18T22:26:12.400Z,11.32
2022-10-18T22:28:41.073Z,11.36
2022-10-18T22:31:17.481Z,11.33
2022-10-18T22:33:44.659Z,11.28
2022-10-18T22:36:11.661Z,11.32
2022-10-18T22:38:39.288Z,11.29
2022-10-18T22:41:10.898Z,11.27
2022-10-18T22:43:38.543Z,11.28
2022-10-18T22:46:07.523Z,11.24
2022-10-18T22:48:34.965Z,11.16
2022-10-18T22:51:02.123Z,11.20
2022-10-18T22:53:29.253Z,11.24
2022-10-18T22:55:56.153Z,11.24
2022-10-18T22:58:22.766Z,11.26
2022-10-18T23:00:49.424Z,11.17
2022-10-18T23:03:18.361Z,11.17
2022-10-18T23:05:46.747Z,11.18
2022-10-18T23:08:14.379Z,11.10
2022-10-18T23:10:42.363Z,11.18
2022-10-18T23:13:10.588Z,11.10
2022-10-18T23:15:39.103Z,11.01
2022-10-18T23:18:06.466Z,11.08
2022-10-18T23:20:33.266Z,11.09
2022-10-18T23:22:59.887Z,11.02
2022-10-18T23:25:27.258Z,10.95
2022-10-18T23:27:54.307Z,11.00
2022-10-18T23:30:20.953Z,10.93
2022-10-18T23:32:47.545Z,10.94
2022-10-18T23:35:14.253Z,10.98
2022-10-18T23:37:40.844Z,11.00
2022-10-18T23:40:08.374Z,11.00
2022-10-18T23:42:34.955Z,10.96
2022-10-18T23:45:01.729Z,10.99
2022-10-18T23:47:28.409Z,11.04
2022-10-18T23:49:57.212Z,11.05
2022-10-18T23:52:24.831Z,11.09
2022-10-18T23:54:51.552Z,11.04
2022-10-18T23:57:18.136Z,11.15
2022-10-18T23:59:44.725Z,11.33
